Time;durP1;ratioP1;P1;durP2;ratioP2;P2;SDS_P1;SDS_P2;PMS_P1;PMS_P2;Temp;Humidity;BMP_temperature;BMP_pressure;BME280_temperature;BME280_humidity;BME280_pressure;Samples;Min_cycle;Max_cycle;Signal;HPM_P1;HPM_P2
2022/12/20 00:01:31;;;;;;;20.60;11.50;;;7.30;99.90;;;;;;5034628;28;20198;-55
2022/12/20 00:04:01;;;;;;;15.10;10.97;;;7.30;99.90;;;;;;5033671;28;21285;-55
2022/12/20 00:06:27;;;;;;;19.17;11.23;;;7.40;99.90;;;;;;5039671;28;20448;-54
2022/12/20 00:08:54;;;;;;;17.63;10.90;;;7.40;99.90;;;;;;5045918;28;22360;-55
2022/12/20 00:11:20;;;;;;;20.83;11.20;;;7.40;70.80;;;;;;5032200;28;20418;-54
2022/12/20 00:13:46;;;;;;;18.73;10.97;;;7.50;93.50;;;;;;5043525;28;20547;-54
2022/12/20 00:16:14;;;;;;;19.33;10.90;;;7.50;31.50;;;;;;5050469;28;20186;-55
2022/12/20 00:18:41;;;;;;;18.13;11.23;;;7.50;1.00;;;;;;5050453;28;20436;-54
2022/12/20 00:21:09;;;;;;;21.00;11.00;;;7.50;1.00;;;;;;5051337;28;20413;-53
2022/12/20 00:23:35;;;;;;;16.10;11.07;;;7.60;1.00;;;;;;5023615;28;20499;-54
2022/12/20 00:26:11;;;;;;;17.33;9.37;;;7.60;1.00;;;;;;5042137;28;20488;-54
2022/12/20 00:28:38;;;;;;;16.57;10.53;;;7.50;1.00;;;;;;5045048;28;20496;-54
2022/12/20 00:31:05;;;;;;;18.17;11.20;;;7.60;1.00;;;;;;5049736;28;20432;-53
2022/12/20 00:33:32;;;;;;;15.67;9.83;;;7.70;1.00;;;;;;5050023;28;20444;-54
2022/12/20 00:35:58;;;;;;;18.73;10.90;;;7.70;1.00;;;;;;5050014;28;20490;-53
2022/12/20 00:38:24;;;;;;;14.90;10.23;;;7.60;1.00;;;;;;5050197;28;20484;-52
2022/12/20 00:41:04;;;;;;;17.53;10.40;;;7.70;1.00;;;;;;5048723;28;20186;-54
2022/12/20 00:43:30;;;;;;;17.33;9.97;;;7.70;1.00;;;;;;5050125;28;20424;-54
2022/12/20 00:45:57;;;;;;;18.10;10.40;;;7.70;1.00;;;;;;5050395;28;21044;-53
2022/12/20 00:48:23;;;;;;;21.57;11.17;;;7.70;1.00;;;;;;5049527;28;20494;-54
2022/12/20 00:50:48;;;;;;;16.30;10.40;;;7.70;1.00;;;;;;5050075;28;20428;-54
2022/12/20 00:53:14;;;;;;;16.03;9.47;;;7.70;1.00;;;;;;5049538;28;20533;-54
2022/12/20 00:55:46;;;;;;;17.77;11.10;;;7.70;1.00;;;;;;5049466;28;20217;-54
2022/12/20 00:58:12;;;;;;;18.40;10.90;;;7.70;1.00;;;;;;5044168;28;20206;-54
2022/12/20 01:00:38;;;;;;;15.87;10.20;;;7.60;1.00;;;;;;5029336;28;20466;-53
2022/12/20 01:03:05;;;;;;;19.93;11.03;;;7.60;1.00;;;;;;5050295;28;20440;-55
2022/12/20 01:05:31;;;;;;;16.13;10.47;;;7.60;1.00;;;;;;5049283;28;20432;-54
2022/12/20 01:07:56;;;;;;;14.20;10.00;;;7.60;1.00;;;;;;5043020;28;20433;-53
2022/12/20 01:10:22;;;;;;;18.77;10.23;;;7.50;32.40;;;;;;5049410;28;20956;-55
2022/12/20 01:12:48;;;;;;;19.60;10.33;;;7.60;99.90;;;;;;5046481;28;20248;-54
2022/12/20 01:15:14;;;;;;;14.43;9.90;;;7.50;99.90;;;;;;5050034;28;20183;-54
2022/12/20 01:17:40;;;;;;;22.60;10.70;;;7.60;99.90;;;;;;5049746;28;20309;-54
2022/12/20 01:20:06;;;;;;;17.77;10.90;;;7.50;99.90;;;;;;5050614;28;20503;-54
2022/12/20 01:22:32;;;;;;;16.00;10.07;;;7.50;99.90;;;;;;5048243;28;20437;-54
2022/12/20 01:24:57;;;;;;;17.13;10.20;;;7.60;99.90;;;;;;5049859;28;20468;-54
2022/12/20 01:27:23;;;;;;;14.97;9.43;;;7.60;99.90;;;;;;5048795;28;20193;-54
2022/12/20 01:29:49;;;;;;;16.20;10.30;;;7.60;99.90;;;;;;5049577;28;20198;-53
2022/12/20 01:32:14;;;;;;;16.23;10.47;;;7.70;99.90;;;;;;5049176;28;20285;-54
2022/12/20 01:34:40;;;;;;;16.00;10.70;;;7.60;99.90;;;;;;5048805;28;20466;-55
2022/12/20 01:37:05;;;;;;;17.40;10.60;;;7.70;99.90;;;;;;5051167;28;20696;-54
2022/12/20 01:39:31;;;;;;;17.53;10.80;;;7.60;99.90;;;;;;5052551;28;20232;-54
2022/12/20 01:41:56;;;;;;;18.30;10.53;;;7.70;99.90;;;;;;5052951;28;20185;-54
2022/12/20 01:44:22;;;;;;;17.87;10.90;;;7.70;99.90;;;;;;5050473;28;20190;-53
2022/12/20 01:46:49;;;;;;;15.67;10.00;;;7.70;99.90;;;;;;5052859;28;20186;-54
2022/12/20 01:49:30;;;;;;;16.53;9.20;;;7.70;99.90;;;;;;5052770;28;20663;-55
2022/12/20 01:52:01;;;;;;;16.77;10.00;;;7.80;99.90;;;;;;5052943;28;20468;-53
2022/12/20 01:54:32;;;;;;;16.27;9.40;;;7.80;99.90;;;;;;5051811;28;20436;-54
2022/12/20 01:57:02;;;;;;;15.93;9.57;;;7.80;99.90;;;;;;5051799;28;20436;-53
2022/12/20 01:59:30;;;;;;;18.80;10.27;;;7.90;99.90;;;;;;5053001;28;20486;-55
2022/12/20 02:02:02;;;;;;;15.13;9.10;;;8.00;99.90;;;;;;5053001;28;20456;-53
2022/12/20 02:04:27;;;;;;;15.37;9.80;;;8.00;99.90;;;;;;5051837;28;20926;-53
2022/12/20 02:06:53;;;;;;;20.77;10.67;;;8.10;99.90;;;;;;5053357;28;20409;-54
2022/12/20 02:09:19;;;;;;;12.40;9.00;;;8.10;99.90;;;;;;5052096;28;20194;-54
2022/12/20 02:11:58;;;;;;;15.40;9.10;;;8.10;99.90;;;;;;5052391;28;20680;-54
2022/12/20 02:14:39;;;;;;;15.90;10.30;;;8.10;99.90;;;;;;5051576;28;20193;-54
2022/12/20 02:17:26;;;;;;;17.00;10.00;;;8.20;99.90;;;;;;5052366;28;21007;-55
2022/12/20 02:20:10;;;;;;;16.07;10.00;;;8.20;99.90;;;;;;5052687;28;20432;-53
2022/12/20 02:23:00;;;;;;;16.43;8.37;;;8.20;99.90;;;;;;5051318;28;20456;-54
2022/12/20 02:25:44;;;;;;;13.53;8.60;;;8.20;99.90;;;;;;5049160;28;20519;-54
2022/12/20 02:28:35;;;;;;;15.60;9.50;;;8.30;99.90;;;;;;5045713;28;21112;-53
2022/12/20 02:31:05;;;;;;;11.70;8.70;;;8.40;99.90;;;;;;5048215;28;20440;-53
2022/12/20 02:33:31;;;;;;;15.87;10.17;;;8.40;99.90;;;;;;5051602;28;20472;-53
2022/12/20 02:35:56;;;;;;;15.00;9.03;;;8.40;99.90;;;;;;5051709;28;20770;-54
2022/12/20 02:38:35;;;;;;;12.00;8.70;;;8.40;99.90;;;;;;5051624;28;20225;-54
2022/12/20 02:41:19;;;;;;;16.57;9.03;;;8.40;99.90;;;;;;5050445;28;20190;-60
2022/12/20 02:46:35;;;;;;;13.37;8.90;;;8.50;99.90;;;;;;5051419;28;20448;-54
2022/12/20 02:49:07;;;;;;;15.60;8.90;;;8.40;99.90;;;;;;5038462;28;20786;-54
2022/12/20 02:51:33;;;;;;;15.90;8.40;;;8.40;99.90;;;;;;5051553;28;20460;-54
2022/12/20 02:53:59;;;;;;;12.73;8.80;;;8.60;99.90;;;;;;5050595;28;20513;-54
2022/12/20 02:56:33;;;;;;;12.13;8.53;;;8.60;99.90;;;;;;5051400;28;20436;-54
2022/12/20 02:59:12;;;;;;;16.37;8.60;;;8.50;99.90;;;;;;5051694;28;20895;-54
2022/12/20 03:01:43;;;;;;;12.50;8.50;;;8.50;99.90;;;;;;5049069;28;20496;-53
2022/12/20 03:04:09;;;;;;;17.23;9.30;;;8.60;99.90;;;;;;5051468;28;20432;-54
2022/12/20 03:06:35;;;;;;;12.63;8.30;;;8.70;99.90;;;;;;5051803;28;20425;-54
2022/12/20 03:09:00;;;;;;;12.60;8.50;;;8.60;99.90;;;;;;5051305;28;20425;-54
2022/12/20 03:11:26;;;;;;;12.10;8.33;;;8.60;99.90;;;;;;5051150;28;20539;-53
2022/12/20 03:13:52;;;;;;;14.50;8.77;;;8.70;99.90;;;;;;5051214;28;20645;-53
2022/12/20 03:16:17;;;;;;;12.90;8.73;;;8.80;99.90;;;;;;5051970;28;20520;-54
2022/12/20 03:18:44;;;;;;;14.20;8.20;;;8.80;99.90;;;;;;5045285;28;20194;-59
2022/12/20 03:21:11;;;;;;;14.00;8.73;;;8.80;99.90;;;;;;5035866;28;20271;-57
2022/12/20 03:23:36;;;;;;;14.80;9.40;;;8.90;99.90;;;;;;5034890;28;20972;-57
2022/12/20 03:26:02;;;;;;;11.90;8.63;;;8.90;99.90;;;;;;5049202;28;20523;-57
2022/12/20 03:28:27;;;;;;;13.20;7.80;;;9.00;99.90;;;;;;5050393;28;20244;-57
2022/12/20 03:30:53;;;;;;;13.63;8.47;;;9.00;99.90;;;;;;5051512;28;20190;-57
2022/12/20 03:33:18;;;;;;;13.53;8.50;;;8.90;99.90;;;;;;5033452;28;20660;-56
2022/12/20 03:35:45;;;;;;;14.57;7.90;;;8.90;99.90;;;;;;5051655;28;20217;-57
2022/12/20 03:38:11;;;;;;;13.43;8.63;;;8.90;99.90;;;;;;5048954;28;20240;-56
2022/12/20 03:40:37;;;;;;;10.63;7.87;;;8.90;99.90;;;;;;5050276;28;20444;-57
2022/12/20 03:43:02;;;;;;;16.60;8.17;;;8.90;99.90;;;;;;5050272;28;20934;-57
2022/12/20 03:45:28;;;;;;;13.20;8.80;;;9.00;99.90;;;;;;5050934;28;20572;-57
2022/12/20 03:47:53;;;;;;;11.23;8.37;;;9.00;99.90;;;;;;5050159;28;20229;-57
2022/12/20 03:50:19;;;;;;;14.53;8.77;;;8.90;99.90;;;;;;5050604;28;20240;-57
2022/12/20 03:52:45;;;;;;;10.80;7.50;;;9.10;99.90;;;;;;5050061;28;20222;-57
2022/12/20 03:55:11;;;;;;;12.40;9.03;;;9.10;99.90;;;;;;5050544;28;20190;-57
2022/12/20 03:57:37;;;;;;;12.50;8.07;;;9.10;99.90;;;;;;5050081;28;20190;-57
2022/12/20 04:00:03;;;;;;;13.57;7.10;;;9.10;99.90;;;;;;5049210;28;20437;-57
2022/12/20 04:02:29;;;;;;;10.57;7.73;;;9.20;99.90;;;;;;5050106;28;20780;-57
2022/12/20 04:04:54;;;;;;;14.73;8.30;;;9.20;99.90;;;;;;5050382;28;20277;-57
2022/12/20 04:07:20;;;;;;;11.03;8.07;;;9.10;99.90;;;;;;5048995;28;20194;-57
2022/12/20 04:09:45;;;;;;;16.20;8.33;;;9.10;99.90;;;;;;5051100;28;20648;-56
2022/12/20 04:12:11;;;;;;;10.47;7.23;;;9.20;99.90;;;;;;5049096;28;20680;-56
2022/12/20 04:14:36;;;;;;;12.90;8.40;;;9.20;99.90;;;;;;5049703;28;20182;-56
2022/12/20 04:17:03;;;;;;;12.17;7.53;;;9.30;99.90;;;;;;5040827;28;20340;-57
2022/12/20 04:19:28;;;;;;;12.30;7.80;;;9.20;99.90;;;;;;5050649;28;20301;-56
2022/12/20 04:21:55;;;;;;;10.63;7.60;;;9.20;99.90;;;;;;5050508;28;20527;-56
2022/12/20 04:24:21;;;;;;;10.67;7.43;;;9.20;99.90;;;;;;5049764;28;20225;-56
2022/12/20 04:26:48;;;;;;;14.00;7.20;;;9.30;99.90;;;;;;5050221;28;20475;-57
2022/12/20 04:29:13;;;;;;;10.97;7.33;;;9.20;99.90;;;;;;5049981;28;20470;-56
2022/12/20 04:31:39;;;;;;;12.77;8.07;;;9.20;99.90;;;;;;5050808;28;20464;-56
2022/12/20 04:34:05;;;;;;;8.70;6.80;;;9.20;99.90;;;;;;5049655;28;20182;-56
2022/12/20 04:36:30;;;;;;;15.13;7.80;;;9.20;99.90;;;;;;5032699;28;20539;-56
2022/12/20 04:38:56;;;;;;;10.80;7.17;;;9.30;99.90;;;;;;5048890;28;20194;-56
2022/12/20 04:41:22;;;;;;;15.57;8.00;;;9.30;99.90;;;;;;5049807;28;20193;-57
2022/12/20 04:43:52;;;;;;;9.67;6.50;;;9.30;99.90;;;;;;5049249;28;20205;-57
2022/12/20 04:46:19;;;;;;;11.57;7.40;;;9.40;99.90;;;;;;5050887;28;20202;-56
2022/12/20 04:48:45;;;;;;;10.83;6.83;;;9.40;73.10;;;;;;5049859;28;20499;-57
2022/12/20 04:51:10;;;;;;;12.37;7.13;;;9.40;32.00;;;;;;5049926;28;20440;-57
2022/12/20 04:53:48;;;;;;;10.97;7.10;;;9.40;58.60;;;;;;5049486;28;20597;-58
2022/12/20 04:56:20;;;;;;;12.07;7.47;;;9.50;94.00;;;;;;5050662;28;20193;-57
2022/12/20 04:58:47;;;;;;;9.77;6.83;;;9.50;83.90;;;;;;5048242;28;20433;-57
2022/12/20 05:01:13;;;;;;;10.70;8.10;;;9.50;99.90;;;;;;5049897;28;20776;-58
2022/12/20 05:03:39;;;;;;;9.80;7.30;;;9.50;99.90;;;;;;5049611;28;20443;-56
2022/12/20 05:06:06;;;;;;;11.20;7.00;;;9.40;99.90;;;;;;5026129;28;20449;-57
2022/12/20 05:08:32;;;;;;;11.73;7.40;;;9.40;99.90;;;;;;5047326;28;20489;-57
2022/12/20 05:10:57;;;;;;;9.83;7.00;;;9.40;1.00;;;;;;5050532;28;20942;-57
2022/12/20 05:13:23;;;;;;;12.37;7.80;;;9.40;1.00;;;;;;5050311;28;20984;-56
2022/12/20 05:15:53;;;;;;;14.03;7.87;;;9.40;1.00;;;;;;5054079;28;20277;-57
2022/12/20 05:18:19;;;;;;;12.33;7.77;;;9.30;1.00;;;;;;5054047;28;20186;-57
2022/12/20 05:20:46;;;;;;;14.13;7.90;;;9.30;1.00;;;;;;5054500;28;20397;-57
2022/12/20 05:28:40;;;;;;;13.17;7.60;;;9.30;1.00;;;;;;5013963;28;20500;-57
2022/12/20 05:31:06;;;;;;;13.40;7.87;;;9.20;1.00;;;;;;5013637;28;20430;-57
2022/12/20 05:33:31;;;;;;;17.67;8.40;;;9.20;1.00;;;;;;5012669;28;20222;-58
2022/12/20 05:35:57;;;;;;;11.33;7.77;;;9.20;17.60;;;;;;5011799;28;20446;-58
2022/12/20 05:38:23;;;;;;;16.43;9.07;;;9.20;21.10;;;;;;5011753;28;20188;-57
2022/12/20 05:40:50;;;;;;;15.27;9.03;;;9.10;60.00;;;;;;5012639;28;20184;-56
2022/12/20 05:43:18;;;;;;;11.07;7.70;;;9.10;99.90;;;;;;5013320;28;20448;-57
2022/12/20 05:45:48;;;;;;;13.13;7.57;;;9.10;99.90;;;;;;5013510;28;20442;-57
2022/12/20 05:48:15;;;;;;;15.13;8.13;;;9.20;99.90;;;;;;5013075;28;20537;-57
2022/12/20 05:50:42;;;;;;;13.47;8.10;;;9.20;99.90;;;;;;5013627;28;20492;-57
2022/12/20 05:53:12;;;;;;;10.80;7.83;;;9.20;80.10;;;;;;5012245;28;20544;-58
2022/12/20 05:55:42;;;;;;;13.47;6.87;;;9.20;77.30;;;;;;5013148;28;20450;-57
2022/12/20 05:58:07;;;;;;;10.90;7.70;;;9.20;99.90;;;;;;5013074;28;20434;-57
2022/12/20 06:00:33;;;;;;;10.77;7.77;;;9.20;99.90;;;;;;5013056;28;20440;-57
2022/12/20 06:02:58;;;;;;;10.83;6.93;;;9.20;99.90;;;;;;5012774;28;20216;-57
2022/12/20 06:05:24;;;;;;;11.40;8.07;;;9.20;99.90;;;;;;5001340;28;20247;-57
2022/12/20 06:07:50;;;;;;;15.07;8.10;;;9.20;99.90;;;;;;5008704;28;20190;-57
2022/12/20 06:10:16;;;;;;;12.03;7.97;;;9.20;99.90;;;;;;5013213;28;20895;-57
2022/12/20 06:12:41;;;;;;;14.00;8.43;;;9.20;99.90;;;;;;5011827;28;20238;-57
2022/12/20 06:15:08;;;;;;;13.97;8.70;;;9.20;99.90;;;;;;5013490;28;20191;-57
2022/12/20 06:17:34;;;;;;;12.10;7.10;;;9.20;99.90;;;;;;5011507;28;20577;-57
2022/12/20 06:19:59;;;;;;;11.63;8.80;;;9.20;99.90;;;;;;5013655;28;20915;-58
2022/12/20 06:22:25;;;;;;;13.47;8.43;;;9.30;99.90;;;;;;5011648;28;20533;-59
2022/12/20 06:24:51;;;;;;;12.30;8.13;;;9.30;99.90;;;;;;5012890;28;20203;-57
2022/12/20 06:27:17;;;;;;;11.60;8.20;;;9.30;99.90;;;;;;5031119;28;20248;-57
2022/12/20 06:29:50;;;;;;;12.70;8.93;;;9.30;99.90;;;;;;5051236;28;20408;-57
2022/12/20 06:32:17;;;;;;;12.80;8.50;;;9.30;99.90;;;;;;5051164;28;20518;-58
2022/12/20 06:34:42;;;;;;;12.90;8.77;;;9.30;99.90;;;;;;5053130;28;20409;-57
2022/12/20 06:37:08;;;;;;;11.70;8.50;;;9.30;99.90;;;;;;5052498;28;20432;-57
2022/12/20 06:39:33;;;;;;;12.67;8.10;;;9.30;99.90;;;;;;5051091;28;20194;-57
2022/12/20 06:41:59;;;;;;;13.30;8.43;;;9.20;99.90;;;;;;5051969;28;20190;-57
2022/12/20 06:44:24;;;;;;;11.60;8.53;;;9.20;99.90;;;;;;5051988;28;20186;-58
2022/12/20 06:46:50;;;;;;;12.87;8.30;;;9.20;1.00;;;;;;5052219;28;20178;-58
2022/12/20 06:49:16;;;;;;;15.10;8.30;;;9.30;1.00;;;;;;5052520;28;21052;-58
2022/12/20 06:51:41;;;;;;;11.90;8.33;;;9.40;1.00;;;;;;5052788;28;20662;-57
2022/12/20 06:54:07;;;;;;;12.60;8.20;;;9.40;99.90;;;;;;5065127;28;20193;-58
2022/12/20 06:56:32;;;;;;;13.30;8.30;;;9.40;99.90;;;;;;5049367;28;20201;-58
2022/12/20 06:58:58;;;;;;;14.10;7.87;;;9.40;99.90;;;;;;5047985;28;20563;-57
2022/12/20 07:01:24;;;;;;;10.23;7.57;;;9.40;99.90;;;;;;5052246;28;20206;-58
2022/12/20 07:03:49;;;;;;;13.40;8.30;;;9.40;99.90;;;;;;5051118;28;20178;-57
2022/12/20 07:06:15;;;;;;;11.30;7.23;;;9.50;99.90;;;;;;5032821;28;20198;-57
2022/12/20 07:08:40;;;;;;;12.13;8.20;;;9.50;99.90;;;;;;5051275;28;20190;-57
2022/12/20 07:11:07;;;;;;;12.07;8.27;;;9.50;99.90;;;;;;5051290;28;20182;-58
2022/12/20 07:13:33;;;;;;;13.10;8.03;;;9.50;99.90;;;;;;5051238;28;20656;-57
2022/12/20 07:16:00;;;;;;;12.37;8.53;;;9.50;99.90;;;;;;5029346;28;20444;-57
2022/12/20 07:18:25;;;;;;;15.67;8.50;;;9.50;99.90;;;;;;5044169;28;20498;-58
2022/12/20 07:20:51;;;;;;;11.87;7.97;;;9.50;99.90;;;;;;5050885;28;20429;-58
2022/12/20 07:23:17;;;;;;;13.00;9.00;;;9.50;99.90;;;;;;5052229;28;20261;-57
2022/12/20 07:25:43;;;;;;;12.40;8.17;;;9.40;99.90;;;;;;5050622;28;20627;-57
2022/12/20 07:28:09;;;;;;;12.30;8.87;;;9.40;99.90;;;;;;5049820;28;20527;-57
2022/12/20 07:30:35;;;;;;;10.50;7.93;;;9.30;1.00;;;;;;5049095;28;20555;-57
2022/12/20 07:33:01;;;;;;;16.00;9.70;;;9.30;1.00;;;;;;5051226;28;20202;-57
2022/12/20 07:35:26;;;;;;;12.47;8.90;;;9.30;1.00;;;;;;5043151;28;20439;-58
2022/12/20 07:37:52;;;;;;;13.67;9.40;;;9.40;1.00;;;;;;5049898;28;20648;-57
2022/12/20 07:40:18;;;;;;;15.47;8.30;;;9.40;1.00;;;;;;5050955;28;20190;-57
2022/12/20 07:42:43;;;;;;;13.93;9.80;;;9.40;1.00;;;;;;5050910;28;20198;-57
2022/12/20 07:45:09;;;;;;;13.73;8.80;;;9.40;1.00;;;;;;5052013;28;20205;-57
2022/12/20 07:47:34;;;;;;;16.47;9.40;;;9.40;1.00;;;;;;5047895;28;20727;-57
2022/12/20 07:50:00;;;;;;;12.40;9.33;;;9.30;1.00;;;;;;5050539;28;20194;-59
2022/12/20 07:52:28;;;;;;;13.87;9.40;;;9.40;1.00;;;;;;5049154;28;20300;-58
2022/12/20 07:55:00;;;;;;;14.30;9.80;;;9.40;1.00;;;;;;5050749;28;20432;-65
2022/12/20 07:57:47;;;;;;;14.93;9.10;;;9.40;1.00;;;;;;5051387;28;20486;-58
2022/12/20 08:00:14;;;;;;;15.90;9.77;;;9.40;1.00;;;;;;5051284;28;20413;-58
2022/12/20 08:02:49;;;;;;;16.57;10.33;;;9.40;1.00;;;;;;5051427;28;20426;-58
2022/12/20 08:05:16;;;;;;;20.00;10.30;;;9.40;1.00;;;;;;5051313;28;20413;-58
2022/12/20 08:07:45;;;;;;;17.80;9.63;;;9.60;1.00;;;;;;5050067;28;20440;-58
2022/12/20 08:10:13;;;;;;;14.10;8.87;;;9.60;99.90;;;;;;5050931;28;20444;-58
2022/12/20 08:12:39;;;;;;;13.00;8.43;;;9.60;99.90;;;;;;5050503;28;20480;-58
2022/12/20 08:15:06;;;;;;;12.80;8.27;;;9.60;99.90;;;;;;5051262;28;20409;-58
2022/12/20 08:17:32;;;;;;;12.67;8.40;;;9.60;99.90;;;;;;5051432;28;20505;-58
2022/12/20 08:19:59;;;;;;;13.70;9.00;;;9.70;99.90;;;;;;5049132;28;20421;-57
2022/12/20 08:22:25;;;;;;;12.73;8.83;;;9.70;99.90;;;;;;5050158;28;20319;-58
2022/12/20 08:24:50;;;;;;;11.50;7.47;;;9.70;99.90;;;;;;5051225;28;20521;-58
2022/12/20 08:27:16;;;;;;;13.20;8.57;;;9.70;99.90;;;;;;5051197;28;21035;-58
2022/12/20 08:29:42;;;;;;;14.70;8.43;;;9.70;99.90;;;;;;5051270;28;20228;-58
2022/12/20 08:32:08;;;;;;;11.53;7.40;;;9.70;99.90;;;;;;5048936;28;20859;-58
2022/12/20 08:34:34;;;;;;;13.03;8.07;;;9.80;99.90;;;;;;5051173;28;20174;-58
2022/12/20 08:36:59;;;;;;;12.70;8.27;;;9.80;99.90;;;;;;5045479;28;20429;-58
2022/12/20 08:39:25;;;;;;;10.90;7.73;;;9.80;74.20;;;;;;5047540;28;20226;-58
2022/12/20 08:41:50;;;;;;;15.20;8.50;;;9.80;50.30;;;;;;5049543;28;20549;-58
2022/12/20 08:44:16;;;;;;;13.47;7.90;;;9.80;28.00;;;;;;5050959;28;20518;-58
2022/12/20 08:46:41;;;;;;;12.27;7.57;;;9.90;1.00;;;;;;5050434;28;20216;-55
2022/12/20 08:49:07;;;;;;;11.50;8.13;;;10.00;1.00;;;;;;5048653;28;20220;-54
2022/12/20 08:51:33;;;;;;;10.43;7.47;;;10.10;1.00;;;;;;5048529;28;20967;-53
2022/12/20 08:53:59;;;;;;;11.87;7.90;;;10.10;1.00;;;;;;5050882;28;20174;-53
2022/12/20 08:56:24;;;;;;;12.30;8.23;;;10.10;99.90;;;;;;5048259;28;20636;-54
2022/12/20 08:58:50;;;;;;;10.10;7.93;;;10.10;99.90;;;;;;5048787;28;20436;-54
2022/12/20 09:01:19;;;;;;;10.73;8.33;;;10.10;99.90;;;;;;5032890;28;20185;-53
2022/12/20 09:03:45;;;;;;;10.83;7.67;;;10.20;99.90;;;;;;5050071;28;20182;-54
2022/12/20 09:06:19;;;;;;;19.20;7.63;;;10.20;99.90;;;;;;5050014;28;20948;-54
2022/12/20 09:08:46;;;;;;;11.60;8.00;;;10.20;99.90;;;;;;5050405;28;20476;-54
2022/12/20 09:11:20;;;;;;;16.33;8.70;;;10.20;99.90;;;;;;5050818;28;20409;-54
2022/12/20 09:13:48;;;;;;;9.80;7.60;;;10.20;99.90;;;;;;5047184;28;20468;-54
2022/12/20 09:16:16;;;;;;;13.00;8.37;;;10.20;99.90;;;;;;5049779;28;20526;-54
2022/12/20 09:18:41;;;;;;;12.93;8.43;;;10.30;2.30;;;;;;5049085;28;20444;-54
2022/12/20 09:21:08;;;;;;;12.10;7.67;;;10.30;1.00;;;;;;5049132;28;20437;-54
2022/12/20 09:23:35;;;;;;;10.83;7.53;;;10.40;1.00;;;;;;5043804;28;20332;-54
2022/12/20 09:26:03;;;;;;;10.80;7.60;;;10.40;1.00;;;;;;5049289;28;20493;-54
2022/12/20 09:28:29;;;;;;;12.03;8.23;;;10.40;1.00;;;;;;5046860;28;20529;-54
2022/12/20 09:31:02;;;;;;;11.67;7.67;;;10.40;1.00;;;;;;5041428;28;20434;-54
2022/12/20 09:33:29;;;;;;;12.00;8.30;;;10.40;1.00;;;;;;5037026;28;20465;-54
2022/12/20 09:35:55;;;;;;;12.27;8.40;;;10.40;1.00;;;;;;5049616;28;20464;-53
2022/12/20 09:38:21;;;;;;;12.47;7.83;;;10.50;1.00;;;;;;5048833;28;20952;-54
2022/12/20 09:40:49;;;;;;;12.97;8.33;;;10.50;1.00;;;;;;5048824;28;20449;-54
2022/12/20 09:43:16;;;;;;;12.43;8.40;;;10.50;1.00;;;;;;5050405;28;20552;-54
2022/12/20 09:45:45;;;;;;;14.00;8.60;;;10.50;1.00;;;;;;5050307;28;20455;-54
2022/12/20 09:48:24;;;;;;;10.50;7.27;;;10.60;1.00;;;;;;5050318;28;20404;-54
2022/12/20 09:50:56;;;;;;;12.00;8.40;;;10.60;99.90;;;;;;5050382;28;20413;-54
2022/12/20 09:53:47;;;;;;;15.97;9.47;;;10.60;99.90;;;;;;5050627;28;20539;-54
2022/12/20 09:56:21;;;;;;;12.37;8.17;;;10.60;99.90;;;;;;5050240;28;20720;-53
2022/12/20 09:58:55;;;;;;;13.10;8.37;;;10.60;99.90;;;;;;5035254;28;20404;-54
2022/12/20 10:01:23;;;;;;;15.13;9.40;;;10.60;1.00;;;;;;5035726;28;20451;-54
2022/12/20 10:03:49;;;;;;;17.57;9.60;;;10.60;1.00;;;;;;5037784;28;20475;-54
2022/12/20 10:06:25;;;;;;;15.10;9.03;;;10.50;99.90;;;;;;5053392;28;20432;-54
2022/12/20 10:09:03;;;;;;;16.07;9.73;;;10.50;99.90;;;;;;5053819;28;20503;-54
2022/12/20 10:11:32;;;;;;;15.10;9.27;;;10.30;1.00;;;;;;5053546;28;20405;-54
2022/12/20 10:14:22;;;;;;;14.40;9.80;;;10.30;1.00;;;;;;5053929;28;20459;-53
2022/12/20 10:16:57;;;;;;;16.20;10.70;;;10.30;1.00;;;;;;5053320;28;20516;-57
2022/12/20 10:19:56;;;;;;;15.70;10.30;;;10.20;22.40;;;;;;5053259;28;20466;-53
2022/12/20 10:22:27;;;;;;;13.77;9.90;;;10.30;34.40;;;;;;5035736;28;20469;-54
2022/12/20 10:25:29;;;;;;;14.43;9.67;;;10.20;12.10;;;;;;5044574;28;20499;-54
2022/12/20 10:27:56;;;;;;;16.30;10.50;;;10.30;1.00;;;;;;5039199;28;20548;-54
2022/12/20 10:30:25;;;;;;;15.83;9.40;;;10.30;1.00;;;;;;5053009;28;20429;-56
2022/12/20 10:32:54;;;;;;;13.00;8.73;;;10.30;1.00;;;;;;5053104;28;20801;-54
2022/12/20 10:35:36;;;;;;;10.70;8.10;;;10.30;1.00;;;;;;5053276;28;21044;-54
2022/12/20 10:38:11;;;;;;;12.60;9.00;;;10.40;1.00;;;;;;5053288;28;20864;-53
2022/12/20 10:40:43;;;;;;;12.03;8.50;;;10.50;1.00;;;;;;5052299;28;20438;-53
2022/12/20 10:43:19;;;;;;;13.50;8.20;;;10.50;1.00;;;;;;5047807;28;20447;-54
2022/12/20 10:46:06;;;;;;;11.67;8.07;;;10.60;99.90;;;;;;5052788;28;20408;-54
2022/12/20 10:48:32;;;;;;;13.70;8.67;;;10.70;99.90;;;;;;5047430;28;20499;-54
2022/12/20 10:51:11;;;;;;;9.63;7.63;;;10.80;1.00;;;;;;5052096;28;20468;-54
2022/12/20 10:53:51;;;;;;;15.37;7.90;;;10.90;1.00;;;;;;5046652;28;20268;-54
2022/12/20 10:56:20;;;;;;;12.17;7.13;;;10.90;99.90;;;;;;5052814;28;20879;-54
2022/12/20 10:58:55;;;;;;;10.70;7.20;;;11.00;99.90;;;;;;5052639;28;20487;-54
2022/12/20 11:01:23;;;;;;;10.37;7.13;;;11.10;1.00;;;;;;5053058;28;20896;-54
2022/12/20 11:03:56;;;;;;;11.70;6.90;;;11.10;1.00;;;;;;5052370;28;20453;-54
2022/12/20 11:06:26;;;;;;;11.03;6.97;;;11.30;1.00;;;;;;5052395;28;20437;-53
2022/12/20 11:08:51;;;;;;;11.30;7.20;;;11.30;1.00;;;;;;5052340;28;20432;-54
2022/12/20 11:11:21;;;;;;;13.73;6.30;;;11.40;3.80;;;;;;5052375;28;20902;-57
2022/12/20 11:13:51;;;;;;;9.10;6.27;;;11.50;99.90;;;;;;5036193;28;20547;-54
2022/12/20 11:16:35;;;;;;;12.57;6.87;;;11.50;99.90;;;;;;5032552;28;20402;-54
2022/12/20 11:19:22;;;;;;;9.50;6.33;;;11.60;99.90;;;;;;5046720;28;20416;-54
2022/12/20 11:22:17;;;;;;;14.67;6.03;;;11.60;99.90;;;;;;5072266;28;20411;-54
2022/12/20 11:25:01;;;;;;;10.40;6.27;;;11.70;21.30;;;;;;5072578;28;20543;-53
2022/12/20 11:27:30;;;;;;;13.30;6.10;;;11.80;1.00;;;;;;5072134;28;20478;-54
2022/12/20 11:30:02;;;;;;;9.20;5.93;;;11.80;99.90;;;;;;5053639;28;20429;-54
2022/12/20 11:32:47;;;;;;;9.07;6.20;;;11.80;99.90;;;;;;5032158;28;20457;-54
2022/12/20 11:35:28;;;;;;;8.07;5.70;;;11.80;1.00;;;;;;5038324;28;21230;-54
2022/12/20 11:38:06;;;;;;;11.30;5.90;;;11.80;1.00;;;;;;5051849;28;20409;-54
2022/12/20 11:40:42;;;;;;;7.10;5.73;;;11.80;1.00;;;;;;5051882;28;20417;-54
2022/12/20 11:43:26;;;;;;;8.90;5.70;;;11.80;1.00;;;;;;5051896;28;20405;-54
2022/12/20 11:46:29;;;;;;;7.63;5.40;;;11.70;1.00;;;;;;5051236;28;20420;-53
2022/12/20 11:49:07;;;;;;;9.77;5.50;;;11.70;1.00;;;;;;5042271;28;20412;-54
2022/12/20 11:51:49;;;;;;;9.00;6.00;;;11.70;1.00;;;;;;5051537;28;20883;-53
2022/12/20 11:54:33;;;;;;;7.57;5.60;;;11.70;99.90;;;;;;5031836;28;20403;-53
2022/12/20 11:57:05;;;;;;;13.10;5.97;;;11.70;99.90;;;;;;5050394;28;20431;-54
2022/12/20 11:59:37;;;;;;;7.93;5.70;;;11.70;1.00;;;;;;5051422;28;20474;-55
2022/12/20 12:02:17;;;;;;;9.63;6.40;;;11.70;99.90;;;;;;5051477;28;20413;-54
2022/12/20 12:05:00;;;;;;;7.67;5.30;;;11.70;99.90;;;;;;5044155;28;20777;-53
2022/12/20 12:07:29;;;;;;;8.67;5.80;;;11.60;99.90;;;;;;5051679;28;21303;-55
2022/12/20 12:10:15;;;;;;;8.17;5.90;;;11.70;19.60;;;;;;5051391;28;20409;-53
2022/12/20 12:12:45;;;;;;;6.90;5.23;;;11.70;1.00;;;;;;5045697;28;22537;-53
2022/12/20 12:15:14;;;;;;;11.30;5.70;;;11.70;1.00;;;;;;5049222;28;20458;-53
2022/12/20 12:17:43;;;;;;;9.00;5.80;;;11.70;1.00;;;;;;5049542;28;20949;-53
2022/12/20 12:20:24;;;;;;;7.80;5.97;;;11.70;1.00;;;;;;5039484;28;20440;-54
2022/12/20 12:23:00;;;;;;;9.03;6.20;;;11.60;1.00;;;;;;5031857;28;21905;-54
2022/12/20 12:25:26;;;;;;;8.63;5.87;;;11.50;1.00;;;;;;5041727;28;20455;-54
2022/12/20 12:27:52;;;;;;;10.20;6.33;;;11.40;1.00;;;;;;5049658;28;20476;-53
2022/12/20 12:30:18;;;;;;;8.87;6.67;;;11.30;5.80;;;;;;5048884;28;20197;-54
2022/12/20 12:32:52;;;;;;;10.80;6.57;;;11.30;13.30;;;;;;5050791;28;20771;-54
2022/12/20 12:35:35;;;;;;;11.17;6.23;;;11.20;38.50;;;;;;5050035;28;20476;-54
2022/12/20 12:38:28;;;;;;;8.53;7.17;;;11.20;64.70;;;;;;5049334;28;20456;-54
2022/12/20 12:41:26;;;;;;;10.70;7.10;;;11.00;97.40;;;;;;5051101;28;20444;-54
2022/12/20 12:43:53;;;;;;;12.33;6.80;;;11.00;99.90;;;;;;5041740;28;20453;-54
2022/12/20 12:46:28;;;;;;;9.17;6.83;;;11.00;99.90;;;;;;5030274;28;20441;-53
2022/12/20 12:48:59;;;;;;;9.17;6.83;;;10.90;99.90;;;;;;5029278;28;20409;-54
2022/12/20 12:51:30;;;;;;;10.07;7.23;;;10.90;99.90;;;;;;5034041;28;20441;-54
2022/12/20 12:54:02;;;;;;;9.37;6.70;;;10.80;1.00;;;;;;5046878;28;20835;-54
2022/12/20 12:56:29;;;;;;;12.23;7.53;;;10.70;1.00;;;;;;5050119;28;20401;-53
2022/12/20 12:59:10;;;;;;;13.00;8.50;;;10.70;1.00;;;;;;5050036;28;20762;-53
2022/12/20 13:01:50;;;;;;;12.30;7.77;;;10.60;1.00;;;;;;5049075;28;20397;-54
2022/12/20 13:04:18;;;;;;;12.57;8.00;;;10.60;58.30;;;;;;5047404;28;20436;-54
2022/12/20 13:06:47;;;;;;;12.00;7.80;;;10.60;99.90;;;;;;5049691;28;20487;-54